KTDZ/TDZ METAR and TAF weather

Enter ICAO airport designator
Station Type Date Time Source
KTDZ METAR 2020/07/11 17:53 UTC NOAA

KTDZ 111753Z AUTO 29017KT 10SM SCT050 SCT060 29/17 A2983 RMK AO2 SLP096 T02890172 10294 20211 57003


Station Type Date Time Source
KTDZ Decoded METAR 2020/07/11 17:53 UTC NOAA

TOLEDO METCALF FIELD, OH, United States (KTDZ) 41-34N 83-29W 189M
Jul 11, 2020 - 01:53 PM EDT / 2020.07.11 1753 UTC
Wind: from the WNW (290 degrees) at 20 MPH (17 KT):0
Visibility: 10 mile(s):0
Sky conditions: partly cloudy
Temperature: 84.0 F (28.9 C)
Dew Point: 63.0 F (17.2 C)
Relative Humidity: 49%
Pressure (altimeter): 29.83 in. Hg (1010 hPa)
Pressure tendency: 0.01 inches (0.3 hPa) lower than three hours ago
ob: KTDZ 111753Z AUTO 29017KT 10SM SCT050 SCT060 29/17 A2983 RMK AO2 SLP096 T02890172 10294 20211 57003
cycle: 18

Station Type Date Time Source
KTDZ TAF UTC NOAA

Error!

Example: see airport list